Time;durP1;ratioP1;P1;durP2;ratioP2;P2;SDS_P1;SDS_P2;PMS_P1;PMS_P2;Temp;Humidity;BMP_temperature;BMP_pressure;BME280_temperature;BME280_humidity;BME280_pressure;Samples;Min_cycle;Max_cycle;Signal;HPM_P1;HPM_P2
2021/09/10 00:02:25;;;;;;;16.70;8.85;;;;;;;28.41;48.20;99753.25;4431777;32;20025;-68
2021/09/10 00:04:50;;;;;;;14.57;8.88;;;;;;;28.49;48.32;99756.13;4431951;32;20082;-69
2021/09/10 00:07:16;;;;;;;17.08;9.45;;;;;;;28.44;48.57;99751.31;4433520;32;20073;-67
2021/09/10 00:09:42;;;;;;;14.32;9.27;;;;;;;28.45;48.45;99749.97;4434067;32;20068;-67
2021/09/10 00:12:07;;;;;;;12.77;8.43;;;;;;;28.51;48.32;99751.31;4434354;32;20082;-67
2021/09/10 00:14:33;;;;;;;15.38;9.73;;;;;;;28.41;48.41;99747.47;4434685;32;20085;-68
2021/09/10 00:16:59;;;;;;;15.35;9.68;;;;;;;28.38;48.34;99754.41;4433829;32;20088;-68
2021/09/10 00:19:24;;;;;;;17.55;9.27;;;;;;;28.20;48.67;99746.22;4433494;32;20059;-68
2021/09/10 00:21:51;;;;;;;14.30;10.25;;;;;;;28.13;48.77;99756.47;4418832;32;20482;-67
2021/09/10 00:24:17;;;;;;;16.55;10.95;;;;;;;27.97;49.15;99751.31;4434895;32;20488;-67
2021/09/10 00:26:42;;;;;;;17.92;12.02;;;;;;;27.84;49.50;99754.41;4431289;32;20030;-67
2021/09/10 00:29:08;;;;;;;18.77;11.70;;;;;;;27.72;49.76;99753.28;4434602;32;20073;-67
2021/09/10 00:31:33;;;;;;;18.27;12.27;;;;;;;27.60;50.06;99752.91;4433261;32;20211;-68
2021/09/10 00:34:00;;;;;;;18.58;12.40;;;;;;;27.40;50.56;99756.03;4430902;32;20445;-68
2021/09/10 00:36:25;;;;;;;16.80;12.35;;;;;;;27.46;50.40;99757.37;4432641;32;20091;-67
2021/09/10 00:38:51;;;;;;;22.48;12.82;;;;;;;27.45;50.33;99755.06;4432583;32;20102;-67
2021/09/10 00:41:17;;;;;;;19.73;13.15;;;;;;;27.47;50.25;99752.34;4432246;32;20037;-67
2021/09/10 00:43:43;;;;;;;21.40;13.88;;;;;;;27.56;50.08;99754.66;4436051;32;20030;-67
2021/09/10 00:46:09;;;;;;;18.20;13.60;;;;;;;27.41;50.36;99746.78;4433700;32;20061;-67
2021/09/10 00:48:38;;;;;;;22.37;14.70;;;;;;;27.57;49.93;99750.41;4432325;32;20025;-67
2021/09/10 00:51:04;;;;;;;21.92;14.87;;;;;;;27.30;50.35;99746.41;4430582;32;20100;-68
2021/09/10 00:53:30;;;;;;;21.62;15.35;;;;;;;27.41;50.29;99746.00;4432073;32;20134;-68
2021/09/10 00:55:56;;;;;;;22.48;16.00;;;;;;;27.18;50.91;99754.66;4433340;32;20514;-68
2021/09/10 00:58:22;;;;;;;22.37;15.43;;;;;;;26.87;51.53;99753.09;4431404;32;20061;-68
2021/09/10 01:00:47;;;;;;;20.98;14.45;;;;;;;27.22;50.72;99749.28;4433635;32;20108;-68
2021/09/10 01:03:13;;;;;;;24.02;14.77;;;;;;;26.99;51.18;99752.16;4430720;32;20034;-68
2021/09/10 01:05:41;;;;;;;18.95;14.05;;;;;;;26.89;51.38;99754.06;4433205;32;20030;-68
2021/09/10 01:08:09;;;;;;;21.77;14.63;;;;;;;26.90;51.34;99749.84;4430301;32;20642;-68
2021/09/10 01:10:35;;;;;;;20.23;14.07;;;;;;;26.91;51.40;99750.63;4433605;32;20034;-68
2021/09/10 01:13:02;;;;;;;19.55;14.07;;;;;;;27.02;50.76;99751.00;4432666;32;20033;-68
2021/09/10 01:15:28;;;;;;;19.02;13.95;;;;;;;26.77;51.36;99752.91;4433465;32;20133;-68
2021/09/10 01:17:54;;;;;;;23.83;13.00;;;;;;;26.78;51.36;99753.66;4433678;32;20025;-68
2021/09/10 01:20:20;;;;;;;18.00;12.23;;;;;;;26.94;50.82;99747.31;4435851;32;20037;-68
2021/09/10 01:22:46;;;;;;;20.40;13.70;;;;;;;26.88;51.04;99746.75;4431883;32;20093;-68
2021/09/10 01:27:52;;;;;;;17.65;12.65;;;;;;;27.20;50.05;99749.06;3978676;32;15139103;-68
2021/09/10 01:30:20;;;;;;;20.10;13.48;;;;;;;27.08;50.60;99747.91;4431943;32;20033;-68
2021/09/10 01:32:47;;;;;;;18.37;12.80;;;;;;;27.26;50.44;99752.56;4428637;32;20062;-68
2021/09/10 01:35:13;;;;;;;20.15;13.20;;;;;;;27.09;50.65;99750.22;4431606;32;20173;-68
2021/09/10 01:37:39;;;;;;;21.23;13.75;;;;;;;27.13;50.40;99755.63;4431212;32;20196;-68
2021/09/10 01:40:06;;;;;;;18.60;12.82;;;;;;;27.32;50.03;99752.38;4430988;32;20111;-68
2021/09/10 01:42:32;;;;;;;19.45;13.48;;;;;;;27.50;49.72;99756.97;4431265;32;20446;-68
2021/09/10 01:44:58;;;;;;;18.45;12.73;;;;;;;27.55;49.45;99756.78;4432261;32;20073;-68
2021/09/10 01:47:23;;;;;;;17.58;12.88;;;;;;;27.53;49.38;99762.38;4431197;32;20122;-68
2021/09/10 01:49:49;;;;;;;17.08;11.60;;;;;;;27.69;49.05;99766.00;4433024;32;20514;-68
2021/09/10 01:52:15;;;;;;;14.52;11.02;;;;;;;27.66;49.17;99767.16;4431313;32;20092;-69
2021/09/10 01:54:41;;;;;;;17.42;10.07;;;;;;;27.85;48.72;99774.06;4430116;32;20119;-68
2021/09/10 01:57:07;;;;;;;13.45;9.30;;;;;;;27.81;48.73;99767.91;4428535;32;20093;-68
2021/09/10 01:59:32;;;;;;;12.93;9.35;;;;;;;27.73;48.85;99775.06;4431255;32;20543;-68
2021/09/10 02:01:58;;;;;;;13.20;9.80;;;;;;;27.70;48.53;99773.34;4433117;32;20076;-69
2021/09/10 02:04:24;;;;;;;13.57;9.00;;;;;;;27.71;48.87;99778.53;4433433;32;20077;-68
2021/09/10 02:06:49;;;;;;;15.05;9.57;;;;;;;27.78;48.59;99782.75;4429274;32;20074;-69
2021/09/10 02:09:16;;;;;;;12.77;9.20;;;;;;;27.74;48.55;99783.16;4431191;32;20029;-69
2021/09/10 02:11:43;;;;;;;11.40;8.43;;;;;;;28.00;48.42;99781.97;4430261;32;20491;-68
2021/09/10 02:14:09;;;;;;;16.52;9.57;;;;;;;27.93;48.11;99789.31;4428284;32;20057;-69
2021/09/10 02:16:34;;;;;;;13.25;9.90;;;;;;;28.08;48.20;99785.59;4433386;32;20057;-69
2021/09/10 02:19:01;;;;;;;12.95;9.60;;;;;;;28.05;48.31;99781.00;4432689;32;20090;-68
2021/09/10 02:21:27;;;;;;;14.32;10.10;;;;;;;28.17;47.91;99791.56;4428607;32;20065;-68
2021/09/10 02:23:52;;;;;;;14.07;9.02;;;;;;;28.15;47.66;99790.59;4432066;32;20026;-68
2021/09/10 02:26:18;;;;;;;13.38;9.95;;;;;;;28.04;47.93;99788.88;4430162;32;20450;-68
2021/09/10 02:28:43;;;;;;;12.20;9.27;;;;;;;28.04;48.21;99800.47;4429533;32;20089;-68
2021/09/10 02:31:09;;;;;;;13.35;9.93;;;;;;;27.90;48.55;99802.06;4429302;32;20144;-69
2021/09/10 02:33:35;;;;;;;15.48;10.40;;;;;;;28.01;48.10;99800.88;4428481;32;20065;-68
2021/09/10 02:36:00;;;;;;;16.95;10.20;;;;;;;28.17;48.02;99793.69;4428282;32;20089;-69
2021/09/10 02:38:26;;;;;;;13.73;9.73;;;;;;;28.18;47.94;99798.88;4419342;32;20041;-69
2021/09/10 02:40:52;;;;;;;12.20;9.32;;;;;;;28.48;47.30;99792.22;4420298;32;20058;-69
2021/09/10 02:43:18;;;;;;;12.50;8.50;;;;;;;28.55;46.96;99803.78;4418331;32;20087;-69
2021/09/10 02:45:44;;;;;;;15.10;8.52;;;;;;;28.51;46.65;99797.63;4418198;32;20033;-69
2021/09/10 02:48:10;;;;;;;13.68;8.55;;;;;;;28.44;47.05;99803.44;4420906;32;20136;-69
2021/09/10 02:50:36;;;;;;;10.57;7.85;;;;;;;28.41;46.79;99787.97;4413586;32;20715;-69
2021/09/10 02:53:02;;;;;;;13.05;8.05;;;;;;;28.34;47.10;99802.47;4421210;32;20119;-69
2021/09/10 02:55:28;;;;;;;9.68;7.10;;;;;;;28.40;46.90;99794.34;4419585;32;20042;-69
2021/09/10 02:57:53;;;;;;;10.90;7.12;;;;;;;28.27;47.11;99797.50;4422638;32;20037;-69
2021/09/10 03:00:19;;;;;;;12.10;8.07;;;;;;;28.23;46.98;99797.91;4419588;32;20122;-69
2021/09/10 03:02:45;;;;;;;11.20;7.47;;;;;;;28.03;47.74;99798.94;4416152;32;20070;-69
2021/09/10 03:05:11;;;;;;;13.27;6.93;;;;;;;28.25;47.31;99795.19;4416919;32;20061;-69
2021/09/10 03:07:37;;;;;;;10.02;6.97;;;;;;;28.26;47.23;99798.84;4420076;32;20060;-69
2021/09/10 03:10:04;;;;;;;7.75;5.70;;;;;;;28.35;47.00;99801.88;4421637;32;20519;-69
2021/09/10 03:12:30;;;;;;;7.28;5.40;;;;;;;28.45;46.77;99796.28;4418078;32;20120;-69
2021/09/10 03:14:56;;;;;;;7.12;5.62;;;;;;;28.37;46.70;99793.41;4418928;32;20069;-69
2021/09/10 03:17:23;;;;;;;8.05;5.53;;;;;;;28.34;46.81;99796.69;4419570;32;20038;-69
2021/09/10 03:19:49;;;;;;;8.82;5.45;;;;;;;28.19;47.01;99797.53;4419772;32;20423;-69
2021/09/10 03:22:14;;;;;;;7.18;5.68;;;;;;;27.99;47.47;99797.78;4417142;32;20207;-69
2021/09/10 03:24:40;;;;;;;7.90;5.78;;;;;;;27.77;47.78;99792.78;4420436;32;20423;-69
2021/09/10 03:27:06;;;;;;;7.28;5.25;;;;;;;27.79;47.83;99798.78;4422254;32;20111;-69
2021/09/10 03:29:32;;;;;;;7.80;5.43;;;;;;;27.82;47.76;99798.34;4421205;32;20135;-69
2021/09/10 03:31:57;;;;;;;5.95;4.87;;;;;;;27.47;48.39;99804.38;4419286;32;20034;-69
2021/09/10 03:34:26;;;;;;;5.60;4.53;;;;;;;27.57;47.81;99806.09;4421168;32;20030;-69
2021/09/10 03:36:52;;;;;;;7.72;5.07;;;;;;;27.71;47.50;99798.78;4420330;32;20491;-69
2021/09/10 03:39:17;;;;;;;7.85;4.87;;;;;;;27.37;48.13;99803.44;4420271;32;20077;-69
2021/09/10 03:41:44;;;;;;;8.20;4.90;;;;;;;27.34;48.33;99799.56;4415435;32;20034;-69
2021/09/10 03:44:09;;;;;;;5.90;4.40;;;;;;;27.35;48.51;99800.31;4419648;32;20213;-69
2021/09/10 03:46:35;;;;;;;7.35;4.43;;;;;;;27.36;48.52;99796.09;4423404;32;20530;-69
2021/09/10 03:49:00;;;;;;;7.47;4.82;;;;;;;27.59;48.14;99797.63;4415932;32;20545;-69
2021/09/10 03:51:27;;;;;;;8.00;4.68;;;;;;;27.50;48.17;99800.34;4417493;32;20033;-69
2021/09/10 03:53:52;;;;;;;5.78;4.68;;;;;;;27.41;48.26;99804.56;4418929;32;20147;-69
2021/09/10 03:56:18;;;;;;;7.15;4.28;;;;;;;27.29;48.20;99802.63;4415902;32;20094;-69
2021/09/10 03:58:44;;;;;;;6.40;4.65;;;;;;;27.42;48.31;99809.00;4422478;32;20082;-69
2021/09/10 04:01:11;;;;;;;8.50;5.10;;;;;;;27.29;48.67;99799.75;4418655;32;20022;-69
2021/09/10 04:03:36;;;;;;;8.73;5.15;;;;;;;27.40;48.47;99803.06;4419932;32;20309;-69
2021/09/10 04:06:02;;;;;;;11.02;5.37;;;;;;;27.51;48.09;99801.84;4417103;32;20471;-69
2021/09/10 04:08:28;;;;;;;6.12;4.28;;;;;;;27.41;48.34;99800.91;4418354;32;20615;-69
2021/09/10 04:10:53;;;;;;;6.55;4.80;;;;;;;27.50;48.23;99809.00;4418150;32;20109;-69
2021/09/10 04:13:19;;;;;;;6.62;5.00;;;;;;;27.31;48.45;99812.28;4417101;32;21167;-69
2021/09/10 04:15:45;;;;;;;7.68;5.30;;;;;;;27.47;48.11;99805.16;4422536;32;20294;-69
2021/09/10 04:18:10;;;;;;;7.57;4.80;;;;;;;27.46;48.41;99809.41;4412114;32;20383;-69
2021/09/10 04:20:36;;;;;;;9.32;5.82;;;;;;;27.49;48.33;99804.59;4418511;32;20013;-69
2021/09/10 04:23:02;;;;;;;8.35;5.35;;;;;;;27.50;48.39;99812.66;4418208;32;20077;-69
2021/09/10 04:25:28;;;;;;;9.63;5.25;;;;;;;27.38;48.81;99805.72;4417689;32;20087;-69
2021/09/10 04:27:54;;;;;;;6.15;4.60;;;;;;;27.46;48.75;99809.41;4419028;32;20057;-69
2021/09/10 04:30:21;;;;;;;7.80;4.97;;;;;;;27.58;48.40;99816.31;4420101;32;20042;-69
2021/09/10 04:32:47;;;;;;;6.68;5.00;;;;;;;27.64;48.34;99808.22;4418624;32;20478;-70
2021/09/10 04:35:14;;;;;;;6.93;4.75;;;;;;;27.62;48.28;99805.16;4420319;32;20077;-69
2021/09/10 04:37:40;;;;;;;6.40;4.28;;;;;;;27.81;48.01;99810.50;4417605;32;20029;-69
2021/09/10 04:40:07;;;;;;;7.22;5.03;;;;;;;27.87;48.06;99805.31;4417130;32;20087;-69
2021/09/10 04:42:34;;;;;;;5.53;4.53;;;;;;;27.80;47.97;99806.88;4416898;32;20366;-69
2021/09/10 04:45:00;;;;;;;8.73;4.30;;;;;;;27.55;48.55;99810.94;4418829;32;20022;-69
2021/09/10 04:47:26;;;;;;;8.35;4.65;;;;;;;27.80;47.86;99811.88;4418885;32;20071;-69
2021/09/10 04:49:53;;;;;;;7.47;3.70;;;;;;;27.89;47.62;99820.72;4417149;32;20061;-69
2021/09/10 04:52:18;;;;;;;9.57;4.32;;;;;;;27.93;47.63;99817.47;4417299;32;20094;-69
2021/09/10 04:54:44;;;;;;;5.62;3.75;;;;;;;27.84;47.42;99818.81;4411215;32;20449;-69
2021/09/10 04:57:10;;;;;;;6.30;3.70;;;;;;;27.98;47.01;99810.72;4416947;32;20362;-69
2021/09/10 04:59:35;;;;;;;4.62;3.60;;;;;;;27.99;47.17;99818.81;4420867;32;20048;-69
2021/09/10 05:02:01;;;;;;;9.65;5.35;;;;;;;28.03;47.12;99816.28;4417137;32;20081;-69
2021/09/10 05:04:27;;;;;;;5.00;4.00;;;;;;;28.16;46.76;99813.16;4415935;32;20022;-69
2021/09/10 05:06:53;;;;;;;5.82;3.67;;;;;;;28.20;46.68;99819.34;4419260;32;20076;-69
2021/09/10 05:09:19;;;;;;;6.78;3.95;;;;;;;28.28;46.37;99817.16;4419835;32;20374;-69
2021/09/10 05:11:45;;;;;;;4.20;3.50;;;;;;;28.31;46.41;99818.91;4416349;32;20061;-69
2021/09/10 05:14:11;;;;;;;5.87;4.12;;;;;;;28.07;46.70;99824.56;4420817;32;20499;-69
2021/09/10 05:16:38;;;;;;;6.30;3.78;;;;;;;27.95;46.93;99818.41;4421465;32;20423;-69
2021/09/10 05:19:04;;;;;;;6.28;4.37;;;;;;;28.18;46.41;99818.34;4417009;32;20056;-69
2021/09/10 05:21:30;;;;;;;5.78;4.53;;;;;;;28.30;46.21;99817.37;4416620;32;20030;-69
2021/09/10 05:23:55;;;;;;;7.70;4.50;;;;;;;28.33;46.21;99819.09;4410821;32;20507;-69
2021/09/10 05:26:21;;;;;;;6.00;4.50;;;;;;;28.45;46.07;99820.22;4415332;32;20194;-69
2021/09/10 05:28:47;;;;;;;7.10;4.75;;;;;;;28.43;45.93;99825.00;4421300;32;20169;-69
2021/09/10 05:31:13;;;;;;;6.47;3.97;;;;;;;28.63;45.63;99830.53;4418390;32;20039;-69
2021/09/10 05:33:39;;;;;;;6.62;4.70;;;;;;;28.71;45.38;99834.19;4415977;32;20539;-69
2021/09/10 05:36:05;;;;;;;5.05;3.90;;;;;;;28.71;45.38;99842.09;4415995;32;20069;-69
2021/09/10 05:38:31;;;;;;;6.82;4.68;;;;;;;28.68;45.43;99840.37;4418502;32;20073;-69
2021/09/10 05:40:56;;;;;;;7.72;4.72;;;;;;;28.83;45.18;99835.28;4421756;32;20077;-69
2021/09/10 05:43:22;;;;;;;6.97;4.78;;;;;;;28.88;45.13;99839.31;4418991;32;20049;-69
2021/09/10 05:45:48;;;;;;;6.45;4.68;;;;;;;28.85;45.05;99835.47;4420713;32;20085;-69
2021/09/10 05:48:18;;;;;;;9.43;4.68;;;;;;;28.88;44.90;99842.22;4420046;32;20081;-69
2021/09/10 05:50:48;;;;;;;7.90;5.32;;;;;;;28.98;44.80;99855.47;4416779;32;20026;-69
2021/09/10 05:53:15;;;;;;;6.30;4.87;;;;;;;29.15;44.10;99857.72;4418063;32;20045;-69
2021/09/10 05:55:42;;;;;;;6.28;5.25;;;;;;;29.20;44.43;99855.97;4417840;32;20106;-69
2021/09/10 05:58:07;;;;;;;8.55;6.25;;;;;;;29.17;44.37;99852.09;4415127;32;20510;-69
2021/09/10 06:00:33;;;;;;;11.30;5.37;;;;;;;28.99;44.50;99857.00;4415922;32;20064;-69
2021/09/10 06:02:59;;;;;;;10.02;5.43;;;;;;;29.20;44.32;99858.88;4420040;32;20072;-69
2021/09/10 06:05:25;;;;;;;6.65;5.20;;;;;;;29.28;44.18;99862.47;4415472;32;20114;-69
2021/09/10 06:07:51;;;;;;;7.70;4.95;;;;;;;29.19;44.09;99855.19;4416274;32;20057;-69
2021/09/10 06:10:18;;;;;;;12.10;5.97;;;;;;;29.18;44.13;99855.78;4418266;32;20083;-69
2021/09/10 06:12:45;;;;;;;8.95;5.62;;;;;;;29.31;43.93;99864.97;4417737;32;20157;-69
2021/09/10 06:15:14;;;;;;;12.25;6.35;;;;;;;29.50;43.71;99864.41;4420566;32;20130;-69
2021/09/10 06:17:41;;;;;;;8.93;6.53;;;;;;;29.34;43.86;99863.00;4414900;32;20785;-69
2021/09/10 06:20:09;;;;;;;7.32;5.57;;;;;;;29.39;44.01;99876.50;4421003;32;20054;-69
2021/09/10 06:22:35;;;;;;;7.20;5.80;;;;;;;29.47;43.65;99871.41;4419190;32;20157;-69
2021/09/10 06:25:03;;;;;;;9.95;5.25;;;;;;;29.42;43.83;99875.31;4418126;32;20101;-69
2021/09/10 06:27:30;;;;;;;14.27;6.62;;;;;;;29.42;43.80;99881.88;4416851;32;20358;-69
2021/09/10 06:29:56;;;;;;;9.80;5.85;;;;;;;29.43;43.83;99882.66;4421259;32;20174;-69
2021/09/10 06:32:24;;;;;;;7.62;5.95;;;;;;;29.02;44.37;99876.12;4412508;32;20065;-69
2021/09/10 06:34:51;;;;;;;9.82;5.40;;;;;;;29.19;44.20;99892.06;4415928;32;20100;-69
2021/09/10 06:37:18;;;;;;;11.35;5.32;;;;;;;29.44;43.81;99889.97;4410364;32;20033;-71
2021/09/10 06:39:45;;;;;;;10.85;6.12;;;;;;;28.97;44.51;99891.56;4414938;32;20134;-69
2021/09/10 06:42:10;;;;;;;9.50;5.28;;;;;;;29.30;43.89;99900.31;4408941;32;20514;-69
2021/09/10 06:44:36;;;;;;;7.62;5.28;;;;;;;29.11;43.85;99885.56;4411711;32;20066;-69
2021/09/10 06:47:02;;;;;;;8.75;5.62;;;;;;;29.34;43.30;99892.75;4415421;32;20820;-69
2021/09/10 06:49:28;;;;;;;10.18;5.20;;;;;;;29.64;43.02;99883.88;4416114;32;20026;-69
2021/09/10 06:51:53;;;;;;;7.45;4.75;;;;;;;29.75;42.61;99885.50;4407919;32;20060;-69
2021/09/10 06:54:20;;;;;;;7.80;5.00;;;;;;;29.87;42.44;99883.66;4404896;32;20520;-70
2021/09/10 06:56:45;;;;;;;13.18;4.75;;;;;;;29.75;42.59;99889.19;4410553;32;20049;-70
2021/09/10 06:59:16;;;;;;;7.03;4.32;;;;;;;29.55;42.46;99896.09;4409979;32;20100;-71
2021/09/10 07:01:42;;;;;;;13.13;5.00;;;;;;;29.77;42.42;99897.28;4402815;32;20135;-69
2021/09/10 07:04:07;;;;;;;7.53;3.80;;;;;;;29.62;42.80;99894.50;4405868;32;20081;-69
2021/09/10 07:06:33;;;;;;;11.48;4.72;;;;;;;29.70;42.39;99912.63;4407564;32;20291;-69
2021/09/10 07:08:59;;;;;;;8.30;3.70;;;;;;;29.79;42.37;99904.03;4408933;32;20069;-69
2021/09/10 07:11:25;;;;;;;7.68;3.42;;;;;;;29.68;42.36;99909.53;4394498;32;20077;-69
2021/09/10 07:13:50;;;;;;;4.95;4.03;;;;;;;29.26;43.06;99905.78;4406418;32;20456;-69
2021/09/10 07:16:16;;;;;;;5.32;3.83;;;;;;;29.19;43.09;99915.25;4401702;32;20102;-69
2021/09/10 07:18:42;;;;;;;7.57;4.07;;;;;;;29.01;43.76;99914.38;4404988;32;20077;-69
2021/09/10 07:21:08;;;;;;;6.28;4.40;;;;;;;29.30;43.48;99914.81;4407625;32;20517;-69
2021/09/10 07:23:34;;;;;;;8.32;3.92;;;;;;;28.96;43.90;99912.47;4404453;32;20103;-69
2021/09/10 07:26:04;;;;;;;8.02;3.92;;;;;;;29.21;43.68;99915.44;4404697;32;20095;-69
2021/09/10 07:28:32;;;;;;;7.47;3.58;;;;;;;29.25;43.41;99918.69;4408252;32;20054;-69
2021/09/10 07:30:58;;;;;;;6.60;2.80;;;;;;;29.60;42.76;99923.31;4403161;32;20107;-70
2021/09/10 07:33:25;;;;;;;4.18;2.60;;;;;;;29.41;42.85;99920.16;4405444;32;20144;-70
2021/09/10 07:35:51;;;;;;;5.28;2.65;;;;;;;29.62;42.48;99923.50;4404490;32;20474;-69
2021/09/10 07:38:17;;;;;;;7.53;2.28;;;;;;;29.79;42.18;99924.34;4407935;32;20341;-69
2021/09/10 07:40:43;;;;;;;6.62;2.97;;;;;;;29.83;41.48;99929.72;4405091;32;20182;-70
2021/09/10 07:43:09;;;;;;;6.37;2.60;;;;;;;29.86;41.38;99934.34;4408239;32;20046;-70
2021/09/10 07:45:35;;;;;;;7.68;3.25;;;;;;;29.77;41.66;99935.78;4407731;32;20068;-69
2021/09/10 07:48:00;;;;;;;5.10;2.70;;;;;;;29.89;41.43;99936.84;4406449;32;20054;-69
2021/09/10 07:50:26;;;;;;;7.25;2.65;;;;;;;30.09;41.37;99934.91;4405775;32;20069;-69
2021/09/10 07:52:52;;;;;;;7.47;2.72;;;;;;;30.18;40.86;99937.16;4401539;32;20089;-69
2021/09/10 07:55:18;;;;;;;4.60;2.45;;;;;;;30.50;40.38;99939.97;4401452;32;20077;-70
2021/09/10 07:57:44;;;;;;;13.38;2.80;;;;;;;30.62;39.84;99944.66;4405761;32;20074;-69
2021/09/10 08:00:10;;;;;;;3.62;2.30;;;;;;;30.36;40.41;99944.56;4402490;32;20069;-70
2021/09/10 08:02:37;;;;;;;5.25;2.40;;;;;;;30.41;40.07;99946.44;4406103;32;20031;-70
2021/09/10 08:05:04;;;;;;;5.72;2.62;;;;;;;30.65;39.44;99951.44;4408732;32;20082;-69
2021/09/10 08:07:29;;;;;;;8.77;2.30;;;;;;;30.67;39.77;99957.38;4407180;32;20392;-70
2021/09/10 08:09:55;;;;;;;10.00;2.60;;;;;;;30.92;39.31;99948.63;4408025;32;20141;-70
2021/09/10 08:12:21;;;;;;;14.87;2.78;;;;;;;30.87;39.35;99958.34;4404532;32;20707;-70
2021/09/10 08:14:47;;;;;;;5.80;1.90;;;;;;;30.65;39.50;99968.84;4406893;32;20442;-70
2021/09/10 08:17:13;;;;;;;3.00;1.75;;;;;;;30.90;39.20;99963.75;4406251;32;20034;-70
2021/09/10 08:19:38;;;;;;;4.18;1.60;;;;;;;30.43;39.72;99956.09;4405586;32;20461;-70
2021/09/10 08:22:04;;;;;;;7.15;1.90;;;;;;;30.78;39.16;99963.50;4405485;32;20239;-70
2021/09/10 08:24:30;;;;;;;5.12;1.70;;;;;;;30.81;39.04;99971.00;4402773;32;20077;-70
2021/09/10 08:26:56;;;;;;;3.85;1.70;;;;;;;30.60;39.66;99975.66;4407411;32;20085;-70
2021/09/10 08:29:22;;;;;;;9.30;2.20;;;;;;;30.08;40.19;99982.72;4407640;32;21276;-69
2021/09/10 08:31:47;;;;;;;4.47;1.40;;;;;;;29.75;41.16;99978.31;4402068;32;20123;-69
2021/09/10 08:34:13;;;;;;;4.00;1.60;;;;;;;29.56;41.95;99978.03;4403391;32;20046;-69
2021/09/10 08:36:39;;;;;;;9.20;1.90;;;;;;;29.45;42.71;99976.34;4407032;32;20109;-69
2021/09/10 08:39:05;;;;;;;12.02;2.03;;;;;;;29.47;42.54;99982.34;4405064;32;20503;-69
2021/09/10 08:41:34;;;;;;;3.37;1.67;;;;;;;29.50;42.46;99977.50;4402633;32;20061;-69
2021/09/10 08:44:05;;;;;;;4.57;1.60;;;;;;;29.94;41.46;99987.28;4401818;32;20187;-69
2021/09/10 08:46:31;;;;;;;6.05;1.80;;;;;;;30.01;nan;99984.34;4402750;32;20524;-69
2021/09/10 08:48:58;;;;;;;3.53;1.77;;;;;;;30.12;41.13;99995.44;4405687;32;20105;-68
2021/09/10 08:51:25;;;;;;;9.40;1.70;;;;;;;30.00;40.71;99994.37;4405188;32;20072;-68
2021/09/10 08:53:51;;;;;;;4.85;1.80;;;;;;;30.31;40.01;99986.97;4399632;32;20081;-68
2021/09/10 08:56:17;;;;;;;2.90;1.50;;;;;;;30.60;39.71;99990.19;4403875;32;20116;-68
2021/09/10 08:58:45;;;;;;;4.32;1.77;;;;;;;31.04;38.84;99999.03;4405294;32;20097;-68
2021/09/10 09:01:11;;;;;;;4.65;2.20;;;;;;;31.41;38.21;99986.94;4409817;32;20112;-69
2021/09/10 09:03:38;;;;;;;3.05;1.70;;;;;;;31.57;38.04;99996.97;4404728;32;20104;-69
2021/09/10 09:06:03;;;;;;;3.17;1.87;;;;;;;31.60;37.63;100001.59;4407720;32;20188;-69
2021/09/10 09:08:30;;;;;;;9.52;2.20;;;;;;;31.67;37.52;100005.78;4401810;32;20172;-69
2021/09/10 09:11:05;;;;;;;3.47;1.70;;;;;;;31.68;37.55;100008.09;4401704;32;20147;-69
2021/09/10 09:19:02;;;;;;;4.40;1.62;;;;;;;30.93;39.11;100011.94;3958185;32;15023551;-71
2021/09/10 09:21:31;;;;;;;7.22;1.80;;;;;;;30.93;39.11;100011.94;4407657;32;20076;-69
2021/09/10 09:24:15;;;;;;;8.52;1.90;;;;;;;30.94;38.77;100010.56;4406849;32;20146;-70
2021/09/10 09:26:43;;;;;;;5.87;1.75;;;;;;;30.95;38.69;100020.06;4397808;32;20373;-68
2021/09/10 09:29:13;;;;;;;5.28;1.70;;;;;;;31.03;38.51;100012.00;4408332;32;20076;-69
2021/09/10 09:31:40;;;;;;;3.92;1.20;;;;;;;31.17;37.67;100010.31;4406937;32;20396;-67
2021/09/10 09:34:07;;;;;;;7.03;1.65;;;;;;;30.72;38.57;100005.75;4406924;32;20182;-68
2021/09/10 09:36:32;;;;;;;3.67;1.70;;;;;;;31.41;37.76;100003.63;4408726;32;20089;-68
2021/09/10 09:39:07;;;;;;;3.30;1.42;;;;;;;31.23;37.69;100007.91;4406970;32;20077;-68
2021/09/10 09:41:41;;;;;;;6.03;1.62;;;;;;;31.12;38.13;100012.09;4407448;32;20098;-68
2021/09/10 09:44:13;;;;;;;8.52;1.45;;;;;;;31.69;37.31;100006.69;4407998;32;20081;-69
2021/09/10 09:46:41;;;;;;;1.75;1.30;;;;;;;31.41;37.22;100006.53;4408676;32;20133;-68
2021/09/10 09:49:09;;;;;;;3.58;1.20;;;;;;;32.00;36.34;100004.13;4408274;32;20066;-69
2021/09/10 09:51:35;;;;;;;1.85;1.10;;;;;;;32.61;34.96;100013.41;4407125;32;20119;-69
2021/09/10 09:54:01;;;;;;;4.68;1.70;;;;;;;32.90;34.37;100001.78;4407064;32;20128;-69
2021/09/10 09:56:28;;;;;;;2.33;1.10;;;;;;;33.69;33.55;100012.97;4406621;32;20073;-69
2021/09/10 09:58:55;;;;;;;5.15;1.20;;;;;;;34.56;31.70;100017.09;4408089;32;20414;-70
2021/09/10 10:01:21;;;;;;;6.03;1.10;;;;;;;34.95;31.30;100018.41;4406888;32;20073;-68
2021/09/10 10:03:48;;;;;;;3.05;1.20;;;;;;;34.73;31.43;100027.75;4405173;32;20160;-68
2021/09/10 10:06:23;;;;;;;2.03;1.40;;;;;;;34.41;31.65;100020.41;4406579;32;20137;-68
2021/09/10 10:09:10;;;;;;;3.15;1.60;;;;;;;34.56;31.41;100017.09;4405785;32;20034;-67
2021/09/10 10:11:43;;;;;;;4.07;0.90;;;;;;;34.78;30.97;100014.97;4405005;32;20473;-68
2021/09/10 10:14:13;;;;;;;5.28;1.15;;;;;;;34.51;31.31;100008.66;4404917;32;20179;-69
2021/09/10 10:33:29;;;;;;;3.22;1.87;;;;;;;35.64;30.09;100015.78;3992498;31;15016132;-70
2021/09/10 10:35:55;;;;;;;5.30;1.70;;;;;;;35.64;30.09;100015.78;4447074;32;20155;-68
2021/09/10 10:38:21;;;;;;;6.43;1.92;;;;;;;34.53;31.20;100006.66;4445677;32;20118;-69
2021/09/10 10:40:50;;;;;;;4.10;1.75;;;;;;;34.63;31.28;100006.59;4445541;32;20045;-71
2021/09/10 10:46:04;;;;;;;4.75;1.75;;;;;;;35.55;29.74;100010.78;3977339;32;15022083;-70
2021/09/10 11:02:26;;;;;;;3.12;1.90;;;;;;;35.74;29.18;100009.81;3971218;32;15022971;-70
2021/09/10 11:05:00;;;;;;;2.22;1.52;;;;;;;35.74;29.18;100009.81;4433230;32;20076;-70
2021/09/10 11:07:28;;;;;;;2.30;1.83;;;;;;;35.47;29.18;100016.13;4432744;32;20385;-70
2021/09/10 11:12:35;;;;;;;3.42;2.08;;;;;;;34.73;30.36;100008.06;3974296;32;15023834;-70
2021/09/10 11:15:14;;;;;;;4.75;2.15;;;;;;;35.59;29.54;100005.19;4425343;32;20131;-70
2021/09/10 11:17:42;;;;;;;4.65;2.65;;;;;;;36.22;28.52;100004.16;4427126;32;20065;-70
2021/09/10 11:20:08;;;;;;;3.90;2.17;;;;;;;36.39;27.74;100011.81;4425997;32;20085;-70
2021/09/10 11:22:46;;;;;;;3.62;2.42;;;;;;;35.82;28.45;100007.44;4426675;32;20546;-70
2021/09/10 11:25:12;;;;;;;6.57;2.70;;;;;;;35.31;29.18;100017.91;4425520;32;20692;-70
2021/09/10 11:27:39;;;;;;;2.75;1.90;;;;;;;34.69;30.01;100007.75;4424779;32;20144;-70
2021/09/10 11:30:08;;;;;;;2.35;1.70;;;;;;;35.04;29.45;100014.63;4424821;32;20034;-70
2021/09/10 11:32:34;;;;;;;2.05;1.52;;;;;;;35.39;29.17;100008.94;4425172;32;20818;-70
2021/09/10 11:35:00;;;;;;;2.15;1.58;;;;;;;35.37;28.89;100005.91;4426282;32;20042;-70
2021/09/10 11:37:27;;;;;;;2.08;1.08;;;;;;;35.81;28.44;100012.53;4423854;32;20108;-70
2021/09/10 11:39:54;;;;;;;1.25;1.10;;;;;;;36.56;27.40;100008.50;4427267;32;20119;-70
2021/09/10 11:42:38;;;;;;;1.40;1.20;;;;;;;36.45;27.24;100004.19;4424524;32;20057;-70
2021/09/10 11:45:13;;;;;;;2.62;1.20;;;;;;;35.86;27.99;100007.72;4424319;32;20760;-70
2021/09/10 11:47:41;;;;;;;4.30;1.62;;;;;;;36.66;27.01;100003.25;4423787;32;20124;-70
2021/09/10 11:50:09;;;;;;;5.55;1.10;;;;;;;37.01;27.14;99998.88;4424630;32;20095;-70
2021/09/10 11:52:38;;;;;;;1.52;1.30;;;;;;;37.34;26.80;100010.37;4426559;32;20033;-70
2021/09/10 11:55:10;;;;;;;2.58;1.60;;;;;;;37.86;25.94;99995.81;4427735;32;20065;-70
2021/09/10 11:57:36;;;;;;;1.75;0.98;;;;;;;37.75;26.29;100000.34;4425970;32;20558;-70
2021/09/10 12:00:04;;;;;;;1.37;0.80;;;;;;;37.81;25.87;99994.81;4423913;32;20106;-70
2021/09/10 12:02:33;;;;;;;1.00;0.70;;;;;;;37.49;25.48;100000.97;4424040;32;20112;-70
2021/09/10 12:05:00;;;;;;;1.50;0.93;;;;;;;37.46;25.54;99999.34;4424591;32;20473;-71
2021/09/10 12:07:29;;;;;;;2.08;0.47;;;;;;;37.81;25.40;99988.16;4425781;32;20064;-72
2021/09/10 12:09:56;;;;;;;3.67;1.40;;;;;;;37.84;25.12;99981.75;4424751;32;20090;-71